Time;durP1;ratioP1;P1;durP2;ratioP2;P2;SDS_P1;SDS_P2;PMS_P1;PMS_P2;Temp;Humidity;BMP_temperature;BMP_pressure;BME280_temperature;BME280_humidity;BME280_pressure;Samples;Min_cycle;Max_cycle;Signal;HPM_P1;HPM_P2
2023/09/02 00:00:27;;;;;;;4.40;3.30;;;;;;;25.48;42.31;100823.52;107803;1285;22047;-68
2023/09/02 00:02:53;;;;;;;4.80;3.20;;;;;;;25.47;42.18;100831.46;107805;1286;22083;-67
2023/09/02 00:05:18;;;;;;;3.90;3.20;;;;;;;25.47;42.34;100832.73;107819;1289;21989;-67
2023/09/02 00:07:44;;;;;;;5.90;3.30;;;;;;;25.46;42.23;100833.34;107813;1289;21989;-67
2023/09/02 00:10:10;;;;;;;5.50;3.50;;;;;;;25.47;42.21;100834.52;107879;1280;21989;-58
2023/09/02 00:12:35;;;;;;;5.80;3.10;;;;;;;25.48;42.17;100835.16;107791;1289;21992;-67
2023/09/02 00:15:01;;;;;;;5.50;3.60;;;;;;;25.47;42.26;100835.75;107788;1283;22047;-59
2023/09/02 00:17:26;;;;;;;4.60;3.60;;;;;;;25.45;42.21;100841.30;107937;1279;22018;-59
2023/09/02 00:19:52;;;;;;;5.20;3.50;;;;;;;25.43;42.33;100844.31;108074;1286;21990;-68
2023/09/02 00:22:18;;;;;;;5.10;3.40;;;;;;;25.39;42.36;100843.32;108004;1287;21990;-68
2023/09/02 00:24:43;;;;;;;7.00;3.40;;;;;;;25.33;42.45;100844.23;108016;1288;21994;-68
2023/09/02 00:27:09;;;;;;;4.20;3.30;;;;;;;25.29;42.43;100842.74;108088;1283;21990;-69
2023/09/02 00:29:35;;;;;;;4.80;3.40;;;;;;;25.23;42.56;100838.80;107898;1289;21992;-59
2023/09/02 00:32:00;;;;;;;7.50;4.00;;;;;;;25.17;42.60;100836.88;107839;1283;22106;-69
2023/09/02 00:34:26;;;;;;;6.70;3.60;;;;;;;25.11;42.58;100833.13;107934;1283;21999;-69
2023/09/02 00:36:52;;;;;;;5.90;3.50;;;;;;;25.08;42.71;100832.98;107987;1288;21990;-59
2023/09/02 00:39:18;;;;;;;5.60;3.40;;;;;;;25.05;42.75;100834.23;108015;1288;22000;-68
2023/09/02 00:41:49;;;;;;;5.20;3.50;;;;;;;25.02;42.87;100837.86;108017;1288;21990;-68
2023/09/02 00:44:14;;;;;;;5.30;3.30;;;;;;;24.97;42.97;100839.23;108055;1288;21999;-68
2023/09/02 00:46:40;;;;;;;5.00;3.30;;;;;;;24.93;42.96;100841.10;107951;1288;22022;-68
2023/09/02 00:49:06;;;;;;;3.80;2.90;;;;;;;24.90;43.00;100837.88;107813;1285;22012;-59
2023/09/02 00:51:31;;;;;;;5.30;4.00;;;;;;;24.88;42.92;100839.82;107867;1289;22012;-65
2023/09/02 00:53:57;;;;;;;5.50;3.40;;;;;;;24.85;43.04;100840.59;107837;1283;21987;-59
2023/09/02 00:56:24;;;;;;;4.80;3.40;;;;;;;24.81;43.24;100841.73;107965;1280;22068;-67
2023/09/02 00:58:49;;;;;;;6.50;3.30;;;;;;;24.78;43.22;100844.04;107998;1288;22002;-68
2023/09/02 01:01:15;;;;;;;5.90;3.60;;;;;;;24.76;43.31;100847.08;107848;1283;21997;-59
2023/09/02 01:03:40;;;;;;;6.60;3.90;;;;;;;24.72;43.39;100851.06;107770;1288;22001;-59
2023/09/02 01:06:08;;;;;;;4.60;3.50;;;;;;;24.67;43.39;100850.11;107687;1286;21997;-60
2023/09/02 01:08:33;;;;;;;4.40;3.30;;;;;;;24.61;43.61;100851.40;108048;1283;22006;-70
2023/09/02 01:10:59;;;;;;;5.80;3.60;;;;;;;24.54;43.66;100852.89;107993;1283;22000;-59
2023/09/02 01:13:26;;;;;;;6.10;3.60;;;;;;;24.48;43.84;100853.50;107870;1278;23449;-59
2023/09/02 01:15:54;;;;;;;4.30;3.40;;;;;;;24.42;43.89;100851.89;107903;1286;22252;-59
2023/09/02 01:18:24;;;;;;;5.90;3.90;;;;;;;24.37;44.08;100852.57;107833;1283;21997;-68
2023/09/02 01:20:55;;;;;;;5.40;3.90;;;;;;;24.34;43.91;100847.55;107848;1288;22002;-69
2023/09/02 01:23:45;;;;;;;5.30;3.70;;;;;;;24.33;44.02;100844.71;107956;1284;21988;-69
2023/09/02 01:26:45;;;;;;;6.30;4.10;;;;;;;24.33;44.21;100846.32;108020;1288;21997;-59
2023/09/02 01:29:10;;;;;;;8.80;3.80;;;;;;;24.34;44.30;100850.54;107995;1286;21989;-58
2023/09/02 01:31:36;;;;;;;7.30;4.00;;;;;;;24.34;44.27;100856.48;107788;1285;21994;-62
2023/09/02 01:34:02;;;;;;;6.20;3.70;;;;;;;24.33;44.40;100857.27;107831;1279;22013;-63
2023/09/02 01:36:29;;;;;;;6.10;3.60;;;;;;;24.32;44.56;100857.89;107805;1289;22000;-69
2023/09/02 01:38:54;;;;;;;7.70;3.50;;;;;;;24.28;44.55;100853.85;107765;1289;22013;-59
2023/09/02 01:41:21;;;;;;;5.50;3.70;;;;;;;24.26;44.63;100855.39;107790;1286;21985;-69
2023/09/02 01:43:47;;;;;;;5.30;3.60;;;;;;;24.25;44.50;100857.40;108042;1288;21989;-59
2023/09/02 01:46:12;;;;;;;6.20;4.20;;;;;;;24.25;44.62;100857.98;107782;1288;21987;-61
2023/09/02 01:48:38;;;;;;;6.20;3.60;;;;;;;24.23;44.55;100860.59;107970;1284;22000;-59
2023/09/02 01:51:03;;;;;;;6.70;3.90;;;;;;;24.21;44.54;100863.05;107823;1283;24104;-59
2023/09/02 01:53:29;;;;;;;5.80;4.10;;;;;;;24.17;44.48;100871.52;107833;1289;22023;-59
2023/09/02 01:55:56;;;;;;;7.20;3.60;;;;;;;24.12;44.65;100872.73;107877;1283;21993;-69
2023/09/02 01:58:21;;;;;;;5.70;3.60;;;;;;;24.09;44.72;100876.52;107842;1289;23625;-59
2023/09/02 02:00:47;;;;;;;6.40;3.70;;;;;;;24.06;44.66;100871.65;108056;1288;21992;-60
2023/09/02 02:03:27;;;;;;;4.90;3.50;;;;;;;24.04;44.71;100870.33;107913;1288;21999;-69
2023/09/02 02:05:53;;;;;;;5.50;3.40;;;;;;;24.04;44.63;100869.98;108026;1286;21997;-70
2023/09/02 02:08:44;;;;;;;5.40;3.60;;;;;;;24.03;44.54;100868.25;108032;1283;21998;-58
2023/09/02 02:11:09;;;;;;;6.50;3.50;;;;;;;24.00;44.69;100873.44;107829;1286;21986;-69
2023/09/02 02:13:35;;;;;;;6.70;3.50;;;;;;;23.96;44.64;100874.04;107797;1287;22774;-69
2023/09/02 02:16:00;;;;;;;6.50;3.60;;;;;;;23.91;44.82;100873.06;107829;1289;22458;-59
2023/09/02 02:18:26;;;;;;;6.50;3.80;;;;;;;23.87;44.91;100871.70;107777;1286;22469;-69
2023/09/02 02:21:04;;;;;;;6.40;3.80;;;;;;;23.85;45.08;100874.87;107905;1283;22269;-69
2023/09/02 02:23:30;;;;;;;6.30;3.50;;;;;;;23.82;45.43;100876.10;107992;1288;21985;-59
2023/09/02 02:26:02;;;;;;;6.90;4.00;;;;;;;23.80;45.44;100876.61;107989;1288;21990;-59
2023/09/02 02:28:29;;;;;;;5.80;4.00;;;;;;;23.80;45.55;100876.63;107971;1289;22262;-69
2023/09/02 02:30:56;;;;;;;6.10;4.10;;;;;;;23.77;45.55;100877.67;107880;1289;21995;-59
2023/09/02 02:33:22;;;;;;;6.10;3.70;;;;;;;23.75;45.67;100881.34;107777;1283;179794;-70
2023/09/02 02:35:47;;;;;;;7.00;3.30;;;;;;;23.74;45.69;100881.98;107804;1289;21990;-71
2023/09/02 02:38:13;;;;;;;5.60;3.80;;;;;;;23.77;45.70;100882.52;107921;1289;21986;-71
2023/09/02 02:40:39;;;;;;;6.60;4.20;;;;;;;23.80;45.63;100877.13;107962;1288;22003;-69
2023/09/02 02:43:05;;;;;;;7.70;4.10;;;;;;;23.80;45.37;100877.48;108024;1283;22027;-70
2023/09/02 02:45:30;;;;;;;7.50;4.20;;;;;;;23.81;45.42;100879.95;107942;1288;22025;-60
2023/09/02 02:47:57;;;;;;;6.00;4.30;;;;;;;23.79;45.54;100882.60;107908;1280;21994;-58
2023/09/02 02:50:22;;;;;;;6.70;4.30;;;;;;;23.77;45.33;100884.67;107905;1289;21988;-59
2023/09/02 02:52:49;;;;;;;6.40;4.10;;;;;;;23.76;45.41;100884.89;107835;1289;21989;-70
2023/09/02 02:55:15;;;;;;;6.70;3.90;;;;;;;23.75;45.39;100884.59;107800;1289;21994;-59
2023/09/02 02:57:40;;;;;;;7.50;4.20;;;;;;;23.73;45.49;100886.17;107795;1286;21991;-59
2023/09/02 03:00:10;;;;;;;6.10;4.10;;;;;;;23.69;45.65;100887.83;107946;1288;22000;-67
2023/09/02 03:02:35;;;;;;;8.00;4.20;;;;;;;23.64;45.57;100889.58;108051;1287;21977;-69
2023/09/02 03:05:01;;;;;;;6.60;4.10;;;;;;;23.59;45.63;100895.34;107968;1283;21989;-58
2023/09/02 03:07:26;;;;;;;6.00;3.80;;;;;;;23.57;45.74;100896.38;107863;1289;22211;-69
2023/09/02 03:09:55;;;;;;;5.70;3.50;;;;;;;23.56;45.84;100894.85;107854;1286;22023;-70
2023/09/02 03:12:20;;;;;;;7.30;3.80;;;;;;;23.54;45.70;100895.81;107815;1289;21959;-70
2023/09/02 03:14:47;;;;;;;6.20;4.20;;;;;;;23.52;45.67;100900.09;107841;1286;21996;-70
2023/09/02 03:17:13;;;;;;;6.60;3.90;;;;;;;23.49;45.68;100901.71;108001;1286;21988;-59
2023/09/02 03:19:45;;;;;;;7.60;4.00;;;;;;;23.47;45.99;100901.65;108052;1287;22208;-58
2023/09/02 03:22:11;;;;;;;6.50;4.40;;;;;;;23.45;45.97;100904.80;108017;1287;23737;-58
2023/09/02 03:24:37;;;;;;;7.90;4.40;;;;;;;23.43;46.08;100906.52;108007;1283;22004;-66
2023/09/02 03:27:03;;;;;;;6.00;4.10;;;;;;;23.41;46.18;100905.55;107833;1283;21992;-59
2023/09/02 03:29:29;;;;;;;9.10;3.90;;;;;;;23.38;46.20;100903.59;107818;1283;21992;-58
2023/09/02 03:31:55;;;;;;;8.30;4.20;;;;;;;23.37;46.68;100905.27;107922;1285;22030;-58
2023/09/02 03:34:20;;;;;;;9.40;4.20;;;;;;;23.34;46.42;100909.73;107816;1286;22453;-58
2023/09/02 03:36:46;;;;;;;16.80;4.60;;;;;;;23.32;46.68;100909.27;107913;1288;21998;-58
2023/09/02 03:39:12;;;;;;;12.60;3.90;;;;;;;23.35;46.62;100913.98;108037;1288;21981;-59
2023/09/02 03:41:37;;;;;;;23.00;4.20;;;;;;;23.41;46.88;100914.35;107997;1283;21986;-67
2023/09/02 03:44:04;;;;;;;11.20;4.40;;;;;;;23.49;47.04;100914.94;107997;1288;21996;-67
2023/09/02 03:46:29;;;;;;;12.10;4.40;;;;;;;23.57;47.23;100917.70;107861;1289;21997;-68
2023/09/02 03:48:55;;;;;;;11.00;3.90;;;;;;;23.68;47.18;100916.70;107821;1289;21995;-58
2023/09/02 03:51:21;;;;;;;6.20;3.70;;;;;;;23.81;46.96;100923.83;107835;1289;22004;-68
2023/09/02 03:53:46;;;;;;;10.20;4.10;;;;;;;23.91;46.88;100921.61;107873;1289;21995;-59
2023/09/02 03:56:12;;;;;;;11.10;4.40;;;;;;;24.00;46.58;100920.98;107923;1283;22003;-57
2023/09/02 03:58:38;;;;;;;6.30;4.20;;;;;;;24.10;46.57;100928.96;108035;1288;22107;-58
2023/09/02 04:01:03;;;;;;;8.80;4.50;;;;;;;24.18;46.41;100932.24;107986;1288;21990;-68
2023/09/02 04:03:34;;;;;;;7.80;4.20;;;;;;;24.22;46.41;100932.39;107990;1288;21997;-68
2023/09/02 04:06:01;;;;;;;6.00;3.90;;;;;;;24.24;46.29;100935.61;107797;1289;22454;-67
2023/09/02 04:08:26;;;;;;;7.80;4.30;;;;;;;24.29;46.34;100938.00;107819;1286;21992;-66
2023/09/02 04:10:55;;;;;;;6.30;3.90;;;;;;;24.36;46.21;100943.71;107844;1286;21990;-58
2023/09/02 04:13:23;;;;;;;6.90;4.20;;;;;;;24.41;46.34;100940.54;107938;1289;22062;-66
2023/09/02 04:15:50;;;;;;;7.50;4.30;;;;;;;24.45;46.30;100940.25;108126;1288;21989;-67
2023/09/02 04:18:15;;;;;;;10.90;4.10;;;;;;;24.51;46.23;100940.25;108022;1284;21994;-58
2023/09/02 04:20:41;;;;;;;6.50;4.20;;;;;;;24.56;46.34;100940.52;108029;1287;21995;-64
2023/09/02 04:23:07;;;;;;;7.20;3.90;;;;;;;24.60;46.33;100940.80;108042;1288;21996;-59
2023/09/02 04:25:33;;;;;;;8.00;4.30;;;;;;;24.65;46.38;100939.59;108029;1283;21995;-66
2023/09/02 04:27:58;;;;;;;8.90;4.00;;;;;;;24.69;46.35;100939.85;108004;1283;21996;-59
2023/09/02 04:30:26;;;;;;;5.50;4.00;;;;;;;24.75;46.31;100940.41;108061;1287;21971;-59
2023/09/02 04:32:52;;;;;;;11.60;4.30;;;;;;;24.81;46.23;100942.37;108096;1288;23051;-68
2023/09/02 04:35:17;;;;;;;17.70;3.90;;;;;;;24.89;46.10;100943.11;107978;1289;21982;-65
2023/09/02 04:37:43;;;;;;;11.30;4.40;;;;;;;24.95;46.22;100942.57;108008;1283;22002;-60
2023/09/02 04:40:10;;;;;;;7.00;4.10;;;;;;;24.99;46.30;100944.98;107774;1289;21990;-66
2023/09/02 04:42:40;;;;;;;9.80;4.20;;;;;;;25.05;46.13;100941.95;107921;1288;22011;-66
2023/09/02 04:45:06;;;;;;;10.90;3.90;;;;;;;25.09;46.16;100945.47;108064;1280;22009;-59
2023/09/02 04:47:32;;;;;;;6.30;4.20;;;;;;;25.15;46.08;100950.65;108017;1287;21995;-59
2023/09/02 04:49:57;;;;;;;5.10;4.00;;;;;;;25.21;46.21;100957.23;108011;1288;21990;-65
2023/09/02 04:52:23;;;;;;;11.90;4.20;;;;;;;25.30;46.20;100958.83;108379;1284;21993;-59
2023/09/02 04:54:49;;;;;;;11.20;5.10;;;;;;;25.39;46.14;100957.31;107924;1278;21993;-66
2023/09/02 04:57:14;;;;;;;6.60;4.70;;;;;;;25.51;46.21;100959.09;107832;1289;21994;-66
2023/09/02 04:59:40;;;;;;;6.70;4.10;;;;;;;25.64;46.31;100958.98;107808;1289;22011;-59
2023/09/02 05:02:05;;;;;;;7.40;4.50;;;;;;;25.75;45.97;100957.68;107928;1279;22024;-70
2023/09/02 05:04:31;;;;;;;6.60;4.30;;;;;;;25.85;45.95;100956.15;107978;1286;22191;-69
2023/09/02 05:06:57;;;;;;;6.20;4.60;;;;;;;25.92;45.74;100952.26;108008;1283;22767;-60
2023/09/02 05:09:23;;;;;;;5.30;4.30;;;;;;;26.00;45.67;100952.81;107971;1281;21989;-70
2023/09/02 05:11:48;;;;;;;5.90;4.10;;;;;;;26.04;45.75;100951.99;108014;1287;21992;-60
2023/09/02 05:14:14;;;;;;;6.10;4.50;;;;;;;26.17;45.57;100951.28;107829;1286;24115;-69
2023/09/02 05:16:40;;;;;;;6.20;4.70;;;;;;;26.28;45.45;100951.80;107884;1289;22046;-69
2023/09/02 05:19:07;;;;;;;6.40;4.30;;;;;;;26.37;45.42;100951.39;107801;1289;21992;-69
2023/09/02 05:21:33;;;;;;;6.80;4.50;;;;;;;26.46;45.37;100950.73;107937;1288;21998;-69
2023/09/02 05:23:58;;;;;;;5.10;4.30;;;;;;;26.55;45.36;100951.01;108030;1288;21993;-59
2023/09/02 05:26:24;;;;;;;7.70;4.20;;;;;;;26.65;45.20;100952.07;108035;1283;22179;-70
2023/09/02 05:28:50;;;;;;;7.00;4.50;;;;;;;26.76;44.96;100951.70;108042;1280;22045;-69
2023/09/02 05:31:15;;;;;;;6.80;4.40;;;;;;;26.86;44.94;100952.11;108131;1286;21989;-69
2023/09/02 05:33:41;;;;;;;6.40;4.10;;;;;;;26.97;44.88;100949.14;107858;1289;22462;-59
2023/09/02 05:36:06;;;;;;;5.10;4.20;;;;;;;27.08;44.67;100947.45;107893;1283;21997;-67
2023/09/02 05:38:32;;;;;;;6.10;4.40;;;;;;;27.16;44.59;100948.45;107827;1289;21992;-69
2023/09/02 05:40:58;;;;;;;4.80;4.30;;;;;;;27.29;44.63;100950.44;108021;1288;21990;-60
2023/09/02 05:43:28;;;;;;;6.40;4.80;;;;;;;27.44;44.59;100950.20;108057;1279;22003;-69
2023/09/02 05:45:57;;;;;;;6.40;4.10;;;;;;;27.60;44.43;100950.50;107923;1288;21990;-69
2023/09/02 05:48:22;;;;;;;7.50;4.60;;;;;;;27.76;44.43;100949.84;107907;1288;21990;-69
2023/09/02 05:50:48;;;;;;;6.20;4.30;;;;;;;27.94;44.28;100957.81;108125;1284;21995;-61
2023/09/02 05:53:14;;;;;;;6.80;5.20;;;;;;;28.14;44.23;100960.48;107815;1289;22006;-59
2023/09/02 05:55:39;;;;;;;6.90;4.80;;;;;;;28.34;44.03;100960.17;107813;1289;21993;-61
2023/09/02 05:58:05;;;;;;;7.20;4.30;;;;;;;28.52;43.84;100955.89;107870;1282;21995;-59
2023/09/02 06:00:30;;;;;;;5.80;4.40;;;;;;;28.72;43.60;100958.87;108029;1288;21993;-59
2023/09/02 06:02:56;;;;;;;8.20;4.40;;;;;;;28.88;43.37;100961.23;108018;1288;22178;-68
2023/09/02 06:05:22;;;;;;;6.60;4.30;;;;;;;28.99;43.28;100961.22;108026;1287;21966;-66
2023/09/02 06:07:47;;;;;;;6.60;4.30;;;;;;;29.13;43.28;100960.66;108014;1283;21987;-69
2023/09/02 06:10:13;;;;;;;10.10;4.30;;;;;;;29.34;43.25;100962.20;107953;1288;24409;-59
2023/09/02 06:12:39;;;;;;;5.90;4.60;;;;;;;29.58;43.16;100964.05;108000;1286;23728;-68
2023/09/02 06:15:05;;;;;;;8.30;4.50;;;;;;;29.80;42.90;100959.13;107891;1286;22039;-59
2023/09/02 06:17:31;;;;;;;6.80;4.50;;;;;;;30.02;42.77;100957.30;108029;1288;21992;-68
2023/09/02 06:20:00;;;;;;;4.90;4.20;;;;;;;30.23;42.44;100960.05;107822;1289;21994;-67
2023/09/02 06:22:26;;;;;;;6.50;3.90;;;;;;;30.36;41.79;100959.77;107940;1289;21980;-68
2023/09/02 06:24:54;;;;;;;5.60;4.10;;;;;;;30.44;41.71;100962.95;107868;1289;23616;-68
2023/09/02 06:27:19;;;;;;;6.30;4.30;;;;;;;30.59;41.49;100963.99;107896;1279;21992;-59
2023/09/02 06:29:45;;;;;;;5.00;4.20;;;;;;;30.76;41.48;100964.67;107987;1285;22457;-59
2023/09/02 06:32:11;;;;;;;4.70;3.90;;;;;;;30.98;41.43;100964.92;107988;1288;21992;-68
2023/09/02 06:34:36;;;;;;;5.70;3.60;;;;;;;31.17;41.05;100967.42;107972;1288;22955;-59
2023/09/02 06:37:02;;;;;;;4.80;4.00;;;;;;;31.36;41.11;100964.97;107972;1284;21994;-59
2023/09/02 06:39:28;;;;;;;7.50;3.90;;;;;;;31.57;40.67;100964.67;107883;1289;21990;-67
2023/09/02 06:41:53;;;;;;;7.10;4.00;;;;;;;31.73;40.23;100962.92;107906;1289;21992;-67
2023/09/02 06:44:19;;;;;;;6.80;3.70;;;;;;;31.86;40.05;100960.56;107830;1282;21991;-59
2023/09/02 06:46:45;;;;;;;5.50;4.00;;;;;;;31.98;39.97;100959.95;107865;1289;22000;-59
2023/09/02 06:49:11;;;;;;;5.90;3.90;;;;;;;32.11;39.63;100962.36;107902;1289;21991;-58
2023/09/02 06:51:36;;;;;;;5.60;3.60;;;;;;;32.23;39.50;100961.42;107805;1286;21990;-65
2023/09/02 06:54:02;;;;;;;6.50;3.90;;;;;;;32.45;39.35;100958.73;107925;1287;23748;-67
2023/09/02 06:56:28;;;;;;;5.90;4.00;;;;;;;32.60;38.84;100955.75;107927;1286;21990;-59
2023/09/02 06:58:53;;;;;;;4.90;3.60;;;;;;;32.70;38.51;100953.79;108021;1283;21995;-59
2023/09/02 07:01:23;;;;;;;7.30;3.30;;;;;;;32.74;38.31;100952.93;108043;1284;21997;-68
2023/09/02 07:03:49;;;;;;;5.40;3.80;;;;;;;32.89;38.33;100954.23;108020;1278;21994;-60
2023/09/02 07:06:15;;;;;;;6.20;3.00;;;;;;;33.13;38.24;100954.41;108041;1288;21953;-68
2023/09/02 07:08:42;;;;;;;5.60;3.40;;;;;;;33.31;37.67;100953.16;107914;1283;22170;-69
2023/09/02 07:11:09;;;;;;;4.30;3.20;;;;;;;33.40;37.48;100956.38;108054;1283;22005;-60
2023/09/02 07:13:38;;;;;;;4.60;3.20;;;;;;;33.50;37.41;100957.52;107983;1288;22163;-67
2023/09/02 07:16:05;;;;;;;7.70;3.40;;;;;;;33.69;37.31;100952.36;107973;1289;21996;-67
2023/09/02 07:18:31;;;;;;;6.20;3.10;;;;;;;33.90;37.04;100951.85;107927;1280;22462;-59
2023/09/02 07:21:00;;;;;;;4.20;3.00;;;;;;;34.03;35.89;100948.88;107898;1283;21992;-60
2023/09/02 07:23:26;;;;;;;4.50;2.90;;;;;;;34.00;35.94;100946.13;107906;1289;21992;-69
2023/09/02 07:25:52;;;;;;;4.80;3.20;;;;;;;34.02;35.93;100946.27;107945;1288;21993;-60
2023/09/02 07:28:18;;;;;;;5.30;3.40;;;;;;;34.16;36.15;100947.57;107917;1283;21991;-67
2023/09/02 07:30:43;;;;;;;3.70;2.80;;;;;;;34.47;36.13;100946.55;108005;1288;21989;-67
2023/09/02 07:33:09;;;;;;;5.30;3.40;;;;;;;34.80;35.54;100944.73;108013;1288;21992;-60
2023/09/02 07:35:37;;;;;;;6.60;3.20;;;;;;;35.00;35.32;100943.20;107933;1283;22169;-68
2023/09/02 07:38:03;;;;;;;5.50;2.70;;;;;;;35.09;34.62;100944.29;107830;1287;21999;-59
2023/09/02 07:40:29;;;;;;;6.20;3.00;;;;;;;35.12;34.83;100946.13;107849;1279;21977;-64
2023/09/02 07:42:55;;;;;;;4.10;2.80;;;;;;;35.25;34.57;100943.42;107873;1289;22028;-59
2023/09/02 07:45:21;;;;;;;5.80;2.70;;;;;;;35.44;33.87;100945.01;107790;1289;22005;-59
2023/09/02 07:47:46;;;;;;;5.90;3.00;;;;;;;35.61;32.95;100943.36;107859;1289;22003;-60
2023/09/02 07:50:12;;;;;;;4.30;2.50;;;;;;;35.51;32.70;100938.42;107970;1288;22464;-68
2023/09/02 07:52:38;;;;;;;5.40;2.20;;;;;;;35.42;32.77;100936.44;107996;1288;22022;-59
2023/09/02 07:55:04;;;;;;;3.40;2.40;;;;;;;35.50;33.07;100934.83;108022;1288;21992;-68
2023/09/02 07:57:30;;;;;;;4.40;2.10;;;;;;;35.73;32.97;100935.45;108055;1286;21992;-60
2023/09/02 07:59:59;;;;;;;5.00;2.40;;;;;;;35.96;32.65;100936.76;108061;1284;22008;-69
2023/09/02 08:02:25;;;;;;;2.70;2.10;;;;;;;36.10;32.69;100940.73;107930;1289;22005;-69
2023/09/02 08:04:50;;;;;;;4.70;2.50;;;;;;;36.27;32.64;100934.90;107794;1289;22247;-68
2023/09/02 08:07:16;;;;;;;5.30;2.30;;;;;;;36.44;32.45;100934.11;107787;1283;22107;-59
2023/09/02 08:09:42;;;;;;;10.80;2.90;;;;;;;36.54;31.58;100937.42;107970;1284;22102;-59
2023/09/02 08:12:07;;;;;;;7.50;3.10;;;;;;;36.53;31.58;100938.25;108030;1286;21999;-60
2023/09/02 08:14:33;;;;;;;10.30;2.70;;;;;;;36.68;30.95;100933.63;107915;1278;23643;-70
2023/09/02 08:16:59;;;;;;;9.20;2.50;;;;;;;36.74;30.20;100935.77;107737;1289;21995;-60
2023/09/02 08:19:24;;;;;;;6.60;2.60;;;;;;;36.75;30.77;100936.40;107791;1289;22460;-70
2023/09/02 08:21:50;;;;;;;4.60;2.20;;;;;;;36.78;31.27;100933.17;107796;1289;21995;-70
2023/09/02 08:24:15;;;;;;;3.70;2.50;;;;;;;36.90;30.94;100936.36;107780;1284;21993;-71
2023/09/02 08:26:41;;;;;;;7.00;2.20;;;;;;;36.88;30.89;100935.66;107776;1287;21993;-70
2023/09/02 08:29:08;;;;;;;6.30;2.40;;;;;;;36.98;30.59;100942.94;107818;1289;21979;-69
2023/09/02 08:31:33;;;;;;;5.10;2.60;;;;;;;37.01;30.14;100942.62;107869;1284;21994;-70
2023/09/02 08:33:59;;;;;;;6.00;2.20;;;;;;;36.96;30.19;100936.46;108177;1286;22086;-60
2023/09/02 08:36:25;;;;;;;5.00;2.10;;;;;;;37.02;30.34;100934.32;108218;1288;22001;-72
2023/09/02 08:38:53;;;;;;;4.60;2.50;;;;;;;37.13;29.78;100936.94;108091;1286;21992;-70
2023/09/02 08:41:34;;;;;;;3.40;2.20;;;;;;;37.12;29.30;100941.55;108106;1288;21995;-60
2023/09/02 08:44:04;;;;;;;4.40;2.20;;;;;;;37.16;29.92;100937.23;107979;1288;21977;-61
2023/09/02 08:46:31;;;;;;;4.60;2.20;;;;;;;37.32;29.77;100939.66;108022;1288;21991;-69
2023/09/02 08:48:57;;;;;;;4.90;2.20;;;;;;;37.54;30.00;100937.52;107995;1283;21992;-71
2023/09/02 08:51:24;;;;;;;6.70;2.50;;;;;;;37.87;29.52;100937.12;108017;1288;21992;-69
2023/09/02 08:53:50;;;;;;;3.10;2.10;;;;;;;38.03;29.41;100938.35;108091;1277;21997;-66
2023/09/02 08:56:16;;;;;;;2.90;2.30;;;;;;;38.09;28.64;100938.12;107995;1282;22001;-66
2023/09/02 08:58:41;;;;;;;4.90;2.30;;;;;;;38.10;28.23;100938.26;108039;1288;22765;-59
2023/09/02 09:01:07;;;;;;;2.00;1.70;;;;;;;38.10;28.51;100936.90;107904;1288;21988;-61
2023/09/02 09:03:33;;;;;;;4.60;2.10;;;;;;;38.22;28.58;100938.35;107762;1281;21993;-62
2023/09/02 09:06:00;;;;;;;3.00;2.10;;;;;;;38.22;27.99;100936.66;108052;1288;22100;-68
2023/09/02 09:08:28;;;;;;;5.00;2.50;;;;;;;38.31;28.30;100936.71;107820;1288;21996;-61
2023/09/02 09:10:53;;;;;;;3.20;2.40;;;;;;;38.62;28.13;100937.20;107814;1288;21993;-61
2023/09/02 09:13:19;;;;;;;3.80;2.80;;;;;;;38.89;28.19;100931.72;107731;1288;22514;-69
2023/09/02 09:15:45;;;;;;;4.40;2.30;;;;;;;39.26;28.32;100928.77;107978;1287;21989;-66
2023/09/02 09:18:11;;;;;;;7.80;2.70;;;;;;;39.60;27.79;100927.46;108126;1288;21989;-59
2023/09/02 09:20:39;;;;;;;4.90;2.50;;;;;;;39.79;27.44;100925.61;107905;1288;21985;-67
2023/09/02 09:23:10;;;;;;;5.20;2.40;;;;;;;39.80;27.49;100930.40;108033;1288;21997;-59
2023/09/02 09:25:36;;;;;;;7.00;2.50;;;;;;;39.80;27.75;100934.98;108008;1288;21995;-59
2023/09/02 09:28:12;;;;;;;7.70;3.00;;;;;;;39.84;27.37;100930.52;107911;1287;21988;-67
2023/09/02 09:30:37;;;;;;;4.10;2.50;;;;;;;39.98;26.80;100928.20;107908;1288;22070;-67
2023/09/02 09:33:05;;;;;;;3.60;2.30;;;;;;;39.94;26.74;100926.54;108277;1286;21986;-69
2023/09/02 09:35:35;;;;;;;3.30;2.10;;;;;;;40.02;27.07;100924.48;108119;1284;21990;-61
2023/09/02 09:38:00;;;;;;;4.70;2.20;;;;;;;40.21;27.19;100923.33;109962;1287;21904;-61
2023/09/02 09:40:31;;;;;;;3.40;2.10;;;;;;;40.42;26.25;100919.65;108136;1284;23036;-68
2023/09/02 09:42:57;;;;;;;2.80;2.20;;;;;;;40.40;25.40;100919.13;108016;1287;22050;-68
2023/09/02 09:45:22;;;;;;;6.50;2.20;;;;;;;40.16;25.50;100919.74;108108;1285;22137;-68
2023/09/02 09:47:48;;;;;;;4.20;2.30;;;;;;;40.01;25.26;100918.10;108007;1284;21995;-61
2023/09/02 09:50:14;;;;;;;3.20;1.70;;;;;;;39.94;25.38;100914.89;108078;1288;22645;-69
2023/09/02 09:52:40;;;;;;;2.80;1.90;;;;;;;39.94;24.94;100911.02;108100;1286;22286;-69
2023/09/02 09:55:06;;;;;;;2.80;1.80;;;;;;;39.99;24.84;100911.94;108014;1288;21992;-60
2023/09/02 09:57:38;;;;;;;3.90;2.20;;;;;;;40.08;25.34;100910.86;108045;1288;21991;-68
2023/09/02 10:00:05;;;;;;;3.40;2.10;;;;;;;40.09;25.13;100913.29;108031;1288;22004;-68
2023/09/02 10:02:31;;;;;;;6.40;2.00;;;;;;;40.05;24.61;100912.62;108023;1286;23372;-60
2023/09/02 10:04:59;;;;;;;2.20;1.80;;;;;;;40.08;24.80;100914.77;108041;1288;21999;-60
2023/09/02 10:07:32;;;;;;;3.20;1.60;;;;;;;40.09;24.30;100917.98;108027;1283;23614;-68
2023/09/02 10:09:59;;;;;;;2.90;1.90;;;;;;;40.04;23.81;100916.94;108031;1286;23065;-67
2023/09/02 10:12:25;;;;;;;5.50;2.30;;;;;;;39.97;24.44;100916.41;108004;1288;23056;-68
2023/09/02 10:14:50;;;;;;;2.30;1.70;;;;;;;39.94;24.55;100914.96;107981;1288;22033;-69
2023/09/02 10:17:17;;;;;;;6.50;2.10;;;;;;;39.99;24.08;100915.75;108013;1288;22004;-61
2023/09/02 10:19:43;;;;;;;3.60;1.90;;;;;;;40.06;23.89;100916.10;108000;1288;22035;-67
2023/09/02 10:22:09;;;;;;;5.00;2.40;;;;;;;40.09;24.11;100915.02;108046;1288;22006;-60
2023/09/02 10:24:43;;;;;;;4.30;2.00;;;;;;;40.06;23.81;100909.58;107955;1277;21993;-68
2023/09/02 10:27:13;;;;;;;4.00;2.20;;;;;;;40.06;24.20;100907.71;108090;1284;23746;-61
2023/09/02 10:29:42;;;;;;;5.80;2.40;;;;;;;40.16;23.89;100905.95;108098;1288;21993;-68
2023/09/02 10:32:26;;;;;;;2.80;1.70;;;;;;;40.26;23.19;100909.68;107978;1289;21993;-60
2023/09/02 10:34:52;;;;;;;3.30;2.00;;;;;;;40.14;22.82;100907.55;108008;1288;22037;-61
2023/09/02 10:37:20;;;;;;;2.60;1.90;;;;;;;40.06;22.85;100903.27;107998;1288;22462;-60
2023/09/02 10:39:53;;;;;;;4.90;2.30;;;;;;;39.94;22.66;100903.05;108016;1284;21990;-68
2023/09/02 10:42:19;;;;;;;4.80;2.20;;;;;;;39.82;22.58;100908.85;108029;1289;22003;-66
2023/09/02 10:44:47;;;;;;;2.90;2.00;;;;;;;39.74;22.90;100912.20;108080;1288;22009;-68
2023/09/02 10:47:13;;;;;;;6.50;2.30;;;;;;;39.66;22.58;100910.64;108011;1289;22454;-63
2023/09/02 10:49:39;;;;;;;1.80;1.50;;;;;;;39.67;23.36;100904.59;108009;1288;21987;-68
2023/09/02 10:52:05;;;;;;;2.80;2.00;;;;;;;39.84;23.68;100897.80;108279;1289;21998;-69
2023/09/02 10:55:03;;;;;;;4.00;1.70;;;;;;;39.98;22.87;100902.95;108042;1288;22043;-68
2023/09/02 10:57:30;;;;;;;3.20;1.70;;;;;;;40.09;23.17;100905.86;107992;1286;22000;-61
2023/09/02 11:00:14;;;;;;;3.30;1.80;;;;;;;40.30;23.32;100900.27;108300;1288;21993;-67
2023/09/02 11:02:41;;;;;;;5.80;1.70;;;;;;;40.45;22.66;100898.20;108118;1288;22065;-61
2023/09/02 11:05:06;;;;;;;3.80;1.90;;;;;;;40.46;22.56;100897.14;108131;1288;22621;-62
2023/09/02 11:07:34;;;;;;;6.20;1.80;;;;;;;40.32;22.11;100896.05;108202;1288;22003;-61
2023/09/02 11:10:00;;;;;;;6.70;1.60;;;;;;;40.20;22.25;100897.96;108144;1287;21992;-67
2023/09/02 11:12:27;;;;;;;3.60;1.80;;;;;;;40.15;22.06;100898.57;108137;1288;23772;-61
2023/09/02 11:15:07;;;;;;;2.80;1.50;;;;;;;40.11;22.06;100897.79;108059;1287;22002;-64